sensor_id;sensor_type;location;lat;lon;timestamp;pressure;altitude;pressure_sealevel;temperature;humidity
69630;BME280;56857;52.212;5.496;2024-03-22T07:46:54;101796.88;;;10.50;100.00
69630;BME280;56857;52.212;5.496;2024-03-22T07:49:19;101790.75;;;10.49;100.00
69630;BME280;56857;52.212;5.496;2024-03-22T07:51:45;101793.25;;;10.51;100.00
69630;BME280;56857;52.212;5.496;2024-03-22T07:54:10;101801.22;;;10.51;100.00
69630;BME280;56857;52.212;5.496;2024-03-22T07:56:35;101801.34;;;10.49;100.00
69630;BME280;56857;52.212;5.496;2024-03-22T07:59:01;101796.88;;;10.50;100.00
69630;BME280;56857;52.212;5.496;2024-03-22T08:01:26;101802.50;;;10.47;100.00
69630;BME280;56857;52.212;5.496;2024-03-22T08:03:51;101794.97;;;10.42;100.00
69630;BME280;56857;52.212;5.496;2024-03-22T08:06:17;101797.63;;;10.42;100.00
69630;BME280;56857;52.212;5.496;2024-03-22T08:08:42;101803.91;;;10.41;100.00
69630;BME280;56857;52.212;5.496;2024-03-22T08:11:08;101796.78;;;10.41;100.00
69630;BME280;56857;52.212;5.496;2024-03-22T08:13:33;101797.63;;;10.42;100.00
69630;BME280;56857;52.212;5.496;2024-03-22T08:15:58;101795.66;;;10.44;100.00
69630;BME280;56857;52.212;5.496;2024-03-22T08:18:23;101801.63;;;10.46;100.00
69630;BME280;56857;52.212;5.496;2024-03-22T08:20:49;101798.84;;;10.48;100.00
69630;BME280;56857;52.212;5.496;2024-03-22T08:23:14;101805.16;;;10.47;100.00
69630;BME280;56857;52.212;5.496;2024-03-22T08:25:39;101796.19;;;10.48;100.00
69630;BME280;56857;52.212;5.496;2024-03-22T08:28:05;101792.44;;;10.50;100.00
69630;BME280;56857;52.212;5.496;2024-03-22T08:30:30;101803.03;;;10.50;100.00
69630;BME280;56857;52.212;5.496;2024-03-22T08:32:55;101797.56;;;10.52;100.00
69630;BME280;56857;52.212;5.496;2024-03-22T08:35:21;101799.41;;;10.51;100.00
69630;BME280;56857;52.212;5.496;2024-03-22T08:37:46;101797.56;;;10.52;100.00
69630;BME280;56857;52.212;5.496;2024-03-22T08:40:12;101802.88;;;10.52;100.00
69630;BME280;56857;52.212;5.496;2024-03-22T08:42:37;101796.88;;;10.50;100.00
69630;BME280;56857;52.212;5.496;2024-03-22T08:45:03;101791.88;;;10.47;100.00
69630;BME280;56857;52.212;5.496;2024-03-22T08:47:28;101791.03;;;10.46;100.00
69630;BME280;56857;52.212;5.496;2024-03-22T08:49:54;101788.25;;;10.48;100.00
69630;BME280;56857;52.212;5.496;2024-03-22T08:52:19;101787.13;;;10.50;100.00
69630;BME280;56857;52.212;5.496;2024-03-22T08:54:44;101794.22;;;10.50;100.00
69630;BME280;56857;52.212;5.496;2024-03-22T08:57:10;101799.41;;;10.51;100.00
69630;BME280;56857;52.212;5.496;2024-03-22T08:59:35;101798.41;;;10.52;100.00
69630;BME280;56857;52.212;5.496;2024-03-22T09:02:00;101795.75;;;10.52;100.00
69630;BME280;56857;52.212;5.496;2024-03-22T09:04:26;101796.75;;;10.51;100.00
69630;BME280;56857;52.212;5.496;2024-03-22T09:06:51;101798.56;;;10.51;100.00
69630;BME280;56857;52.212;5.496;2024-03-22T09:09:17;101802.03;;;10.51;100.00
69630;BME280;56857;52.212;5.496;2024-03-22T09:11:42;101794.91;;;10.52;100.00
69630;BME280;56857;52.212;5.496;2024-03-22T09:14:07;101797.56;;;10.52;100.00
69630;BME280;56857;52.212;5.496;2024-03-22T09:16:33;101793.94;;;10.53;100.00
69630;BME280;56857;52.212;5.496;2024-03-22T09:18:58;101792.97;;;10.54;100.00
69630;BME280;56857;52.212;5.496;2024-03-22T09:21:23;101795.63;;;10.54;100.00
69630;BME280;56857;52.212;5.496;2024-03-22T09:23:49;101790.16;;;10.55;100.00
69630;BME280;56857;52.212;5.496;2024-03-22T09:26:14;101785.56;;;10.57;100.00
69630;BME280;56857;52.212;5.496;2024-03-22T09:28:39;101788.06;;;10.59;100.00
69630;BME280;56857;52.212;5.496;2024-03-22T09:31:06;101786.25;;;10.59;100.00
69630;BME280;56857;52.212;5.496;2024-03-22T09:33:33;101784.44;;;10.60;100.00
69630;BME280;56857;52.212;5.496;2024-03-22T09:35:59;101785.41;;;10.59;100.00
69630;BME280;56857;52.212;5.496;2024-03-22T09:38:24;101787.75;;;10.62;100.00
69630;BME280;56857;52.212;5.496;2024-03-22T09:40:50;101786.78;;;10.63;100.00
69630;BME280;56857;52.212;5.496;2024-03-22T09:43:16;101782.44;;;10.62;100.00
69630;BME280;56857;52.212;5.496;2024-03-22T09:45:42;101775.50;;;10.61;100.00
69630;BME280;56857;52.212;5.496;2024-03-22T09:48:07;101776.47;;;10.60;100.00
69630;BME280;56857;52.212;5.496;2024-03-22T09:50:34;101773.97;;;10.58;100.00
69630;BME280;56857;52.212;5.496;2024-03-22T09:53:00;101779.44;;;10.57;100.00
69630;BME280;56857;52.212;5.496;2024-03-22T09:55:26;101782.06;;;10.57;100.00
69630;BME280;56857;52.212;5.496;2024-03-22T09:57:52;101788.06;;;10.59;100.00
69630;BME280;56857;52.212;5.496;2024-03-22T10:00:18;101775.66;;;10.59;100.00
69630;BME280;56857;52.212;5.496;2024-03-22T10:02:46;101779.44;;;10.57;100.00
69630;BME280;56857;52.212;5.496;2024-03-22T10:05:11;101777.72;;;10.56;100.00
69630;BME280;56857;52.212;5.496;2024-03-22T10:07:37;101776.06;;;10.55;100.00
69630;BME280;56857;52.212;5.496;2024-03-22T10:10:02;101771.47;;;10.57;100.00
69630;BME280;56857;52.212;5.496;2024-03-22T10:12:27;101766.72;;;10.60;100.00
69630;BME280;56857;52.212;5.496;2024-03-22T10:14:53;101772.53;;;10.64;100.00
69630;BME280;56857;52.212;5.496;2024-03-22T10:17:18;101768.91;;;10.65;100.00
69630;BME280;56857;52.212;5.496;2024-03-22T10:19:44;101768.78;;;10.66;100.00
69630;BME280;56857;52.212;5.496;2024-03-22T10:22:09;101767.78;;;10.67;100.00
69630;BME280;56857;52.212;5.496;2024-03-22T10:24:35;101770.00;;;10.72;100.00
69630;BME280;56857;52.212;5.496;2024-03-22T10:27:00;101763.41;;;10.76;100.00
69630;BME280;56857;52.212;5.496;2024-03-22T10:29:26;101766.75;;;10.78;100.00
69630;BME280;56857;52.212;5.496;2024-03-22T10:31:52;101760.31;;;10.81;100.00
69630;BME280;56857;52.212;5.496;2024-03-22T10:34:22;101758.19;;;10.84;100.00
69630;BME280;56857;52.212;5.496;2024-03-22T10:36:49;101766.72;;;10.88;100.00
69630;BME280;56857;52.212;5.496;2024-03-22T10:39:17;101761.41;;;10.88;100.00
69630;BME280;56857;52.212;5.496;2024-03-22T10:41:44;101771.16;;;10.87;100.00
69630;BME280;56857;52.212;5.496;2024-03-22T10:44:09;101771.16;;;10.87;100.00
69630;BME280;56857;52.212;5.496;2024-03-22T10:46:35;101772.00;;;10.88;100.00
69630;BME280;56857;52.212;5.496;2024-03-22T10:49:02;101772.69;;;10.90;100.00
69630;BME280;56857;52.212;5.496;2024-03-22T10:51:27;101770.72;;;10.92;100.00
69630;BME280;56857;52.212;5.496;2024-03-22T10:53:54;101766.94;;;10.95;100.00
69630;BME280;56857;52.212;5.496;2024-03-22T10:56:21;101764.81;;;10.98;100.00
69630;BME280;56857;52.212;5.496;2024-03-22T10:58:48;101772.50;;;11.01;100.00
69630;BME280;56857;52.212;5.496;2024-03-22T11:01:25;101767.84;;;11.03;100.00
69630;BME280;56857;52.212;5.496;2024-03-22T11:03:51;101766.88;;;11.04;100.00
69630;BME280;56857;52.212;5.496;2024-03-22T11:06:19;101760.59;;;11.05;100.00
69630;BME280;56857;52.212;5.496;2024-03-22T11:08:49;101766.94;;;11.12;100.00
69630;BME280;56857;52.212;5.496;2024-03-22T11:11:17;101753.38;;;11.16;100.00
69630;BME280;56857;52.212;5.496;2024-03-22T11:13:43;101753.94;;;11.19;100.00
69630;BME280;56857;52.212;5.496;2024-03-22T11:16:09;101757.94;;;11.23;100.00
69630;BME280;56857;52.212;5.496;2024-03-22T11:18:35;101756.13;;;11.24;100.00
69630;BME280;56857;52.212;5.496;2024-03-22T11:21:00;101753.16;;;11.27;100.00
69630;BME280;56857;52.212;5.496;2024-03-22T11:23:25;101753.16;;;11.27;100.00
69630;BME280;56857;52.212;5.496;2024-03-22T11:25:51;101754.00;;;11.27;100.00
69630;BME280;56857;52.212;5.496;2024-03-22T11:28:16;101750.34;;;11.28;100.00
69630;BME280;56857;52.212;5.496;2024-03-22T11:30:41;101743.09;;;11.30;100.00
69630;BME280;56857;52.212;5.496;2024-03-22T11:33:07;101738.59;;;11.31;100.00
69630;BME280;56857;52.212;5.496;2024-03-22T11:35:33;101744.75;;;11.31;100.00
69630;BME280;56857;52.212;5.496;2024-03-22T11:37:58;101729.81;;;11.30;100.00
69630;BME280;56857;52.212;5.496;2024-03-22T11:40:25;101739.72;;;11.28;100.00
69630;BME280;56857;52.212;5.496;2024-03-22T11:42:52;101726.47;;;11.28;100.00
69630;BME280;56857;52.212;5.496;2024-03-22T11:45:19;101726.63;;;11.27;100.00
69630;BME280;56857;52.212;5.496;2024-03-22T11:47:48;101725.78;;;11.26;100.00
69630;BME280;56857;52.212;5.496;2024-03-22T11:50:14;101723.66;;;11.30;100.00
69630;BME280;56857;52.212;5.496;2024-03-22T11:52:43;101723.38;;;11.33;100.00
69630;BME280;56857;52.212;5.496;2024-03-22T11:55:12;101716.94;;;11.35;100.00
69630;BME280;56857;52.212;5.496;2024-03-22T11:57:38;101714.94;;;11.37;100.00
69630;BME280;56857;52.212;5.496;2024-03-22T12:00:04;101720.94;;;11.40;100.00
69630;BME280;56857;52.212;5.496;2024-03-22T12:02:31;101715.44;;;11.41;100.00
69630;BME280;56857;52.212;5.496;2024-03-22T12:04:57;101718.97;;;11.42;100.00
69630;BME280;56857;52.212;5.496;2024-03-22T12:07:23;101712.78;;;11.41;100.00
69630;BME280;56857;52.212;5.496;2024-03-22T12:09:48;101708.50;;;11.40;100.00
69630;BME280;56857;52.212;5.496;2024-03-22T12:12:14;101714.31;;;11.44;100.00
69630;BME280;56857;52.212;5.496;2024-03-22T12:14:40;101709.00;;;11.44;100.00
69630;BME280;56857;52.212;5.496;2024-03-22T12:17:08;101720.09;;;11.39;100.00
69630;BME280;56857;52.212;5.496;2024-03-22T12:19:33;101707.13;;;11.36;100.00
69630;BME280;56857;52.212;5.496;2024-03-22T12:21:59;101703.78;;;11.34;100.00
69630;BME280;56857;52.212;5.496;2024-03-22T12:24:25;101700.59;;;11.30;100.00
69630;BME280;56857;52.212;5.496;2024-03-22T12:26:51;101706.38;;;11.26;100.00
69630;BME280;56857;52.212;5.496;2024-03-22T12:29:17;101706.53;;;11.24;100.00
69630;BME280;56857;52.212;5.496;2024-03-22T12:31:42;101704.69;;;11.25;100.00
69630;BME280;56857;52.212;5.496;2024-03-22T12:34:08;101706.69;;;11.23;100.00
69630;BME280;56857;52.212;5.496;2024-03-22T12:36:33;101705.00;;;11.22;100.00
69630;BME280;56857;52.212;5.496;2024-03-22T12:38:58;101703.50;;;11.19;100.00
69630;BME280;56857;52.212;5.496;2024-03-22T12:41:24;101702.81;;;11.17;100.00
69630;BME280;56857;52.212;5.496;2024-03-22T12:43:49;101701.31;;;11.14;100.00
69630;BME280;56857;52.212;5.496;2024-03-22T12:46:14;101694.16;;;11.15;100.00
69630;BME280;56857;52.212;5.496;2024-03-22T12:48:40;101694.56;;;11.20;100.00
69630;BME280;56857;52.212;5.496;2024-03-22T12:51:06;101694.56;;;11.20;100.00
69630;BME280;56857;52.212;5.496;2024-03-22T12:53:32;101690.06;;;11.21;100.00
69630;BME280;56857;52.212;5.496;2024-03-22T12:55:57;101690.59;;;11.24;100.00
69630;BME280;56857;52.212;5.496;2024-03-22T12:58:23;101680.38;;;11.29;100.00
69630;BME280;56857;52.212;5.496;2024-03-22T13:00:48;101682.72;;;11.32;100.00
69630;BME280;56857;52.212;5.496;2024-03-22T13:03:13;101687.88;;;11.34;100.00
69630;BME280;56857;52.212;5.496;2024-03-22T13:05:38;101678.06;;;11.34;100.00
69630;BME280;56857;52.212;5.496;2024-03-22T13:08:04;101685.06;;;11.35;100.00
69630;BME280;56857;52.212;5.496;2024-03-22T13:10:29;101685.50;;;11.31;100.00
69630;BME280;56857;52.212;5.496;2024-03-22T13:12:55;101684.16;;;11.27;100.00
69630;BME280;56857;52.212;5.496;2024-03-22T13:15:20;101666.50;;;11.18;100.00
69630;BME280;56857;52.212;5.496;2024-03-22T13:17:45;101676.72;;;11.12;100.00
69630;BME280;56857;52.212;5.496;2024-03-22T13:20:11;101681.19;;;11.12;100.00
69630;BME280;56857;52.212;5.496;2024-03-22T13:22:37;101672.41;;;11.11;100.00
69630;BME280;56857;52.212;5.496;2024-03-22T13:25:04;101665.28;;;11.12;100.00
69630;BME280;56857;52.212;5.496;2024-03-22T13:27:30;101661.97;;;11.10;100.00
69630;BME280;56857;52.212;5.496;2024-03-22T13:29:55;101652.31;;;11.09;100.00
69630;BME280;56857;52.212;5.496;2024-03-22T13:32:20;101655.16;;;11.07;100.00
69630;BME280;56857;52.212;5.496;2024-03-22T13:34:46;101653.63;;;11.05;100.00
69630;BME280;56857;52.212;5.496;2024-03-22T13:37:11;101655.75;;;11.01;100.00
69630;BME280;56857;52.212;5.496;2024-03-22T13:39:36;101657.88;;;10.98;100.00
69630;BME280;56857;52.212;5.496;2024-03-22T13:42:02;101656.34;;;10.95;100.00
69630;BME280;56857;52.212;5.496;2024-03-22T13:44:27;101649.41;;;10.94;100.00
69630;BME280;56857;52.212;5.496;2024-03-22T13:46:52;101647.56;;;10.95;100.00
69630;BME280;56857;52.212;5.496;2024-03-22T13:49:19;101644.63;;;10.98;100.00
69630;BME280;56857;52.212;5.496;2024-03-22T13:51:44;101639.97;;;11.00;100.00
69630;BME280;56857;52.212;5.496;2024-03-22T13:54:11;101629.34;;;11.00;100.00
69630;BME280;56857;52.212;5.496;2024-03-22T13:56:37;101636.34;;;11.01;100.00
69630;BME280;56857;52.212;5.496;2024-03-22T13:59:02;101626.56;;;11.01;100.00
69630;BME280;56857;52.212;5.496;2024-03-22T14:01:27;101627.41;;;11.02;100.00
69630;BME280;56857;52.212;5.496;2024-03-22T14:03:53;101621.63;;;11.06;100.00
69630;BME280;56857;52.212;5.496;2024-03-22T14:06:18;101615.03;;;11.10;100.00
69630;BME280;56857;52.212;5.496;2024-03-22T14:08:43;101604.13;;;11.13;100.00
69630;BME280;56857;52.212;5.496;2024-03-22T14:11:09;101604.63;;;11.17;100.00
69630;BME280;56857;52.212;5.496;2024-03-22T14:13:34;101606.97;;;11.20;100.00
69630;BME280;56857;52.212;5.496;2024-03-22T14:15:59;101602.34;;;11.22;100.00
69630;BME280;56857;52.212;5.496;2024-03-22T14:18:25;101593.41;;;11.23;100.00
69630;BME280;56857;52.212;5.496;2024-03-22T14:20:50;101604.84;;;11.24;100.00
69630;BME280;56857;52.212;5.496;2024-03-22T14:23:15;101594.53;;;11.21;100.00
69630;BME280;56857;52.212;5.496;2024-03-22T14:25:41;101587.88;;;11.17;100.00
69630;BME280;56857;52.212;5.496;2024-03-22T14:28:06;101581.06;;;11.14;100.00
69630;BME280;56857;52.212;5.496;2024-03-22T14:30:31;101579.53;;;11.11;100.00
69630;BME280;56857;52.212;5.496;2024-03-22T14:32:57;101583.84;;;11.12;100.00
69630;BME280;56857;52.212;5.496;2024-03-22T14:35:22;101577.72;;;11.12;100.00
69630;BME280;56857;52.212;5.496;2024-03-22T14:37:47;101572.28;;;11.13;100.00
69630;BME280;56857;52.212;5.496;2024-03-22T14:40:13;101566.28;;;11.11;100.00
69630;BME280;56857;52.212;5.496;2024-03-22T14:42:38;101568.25;;;11.09;100.00
69630;BME280;56857;52.212;5.496;2024-03-22T14:45:04;101563.78;;;11.10;100.00
69630;BME280;56857;52.212;5.496;2024-03-22T14:47:29;101566.28;;;11.11;100.00
69630;BME280;56857;52.212;5.496;2024-03-22T14:49:55;101571.44;;;11.13;100.00
69630;BME280;56857;52.212;5.496;2024-03-22T14:52:20;101569.44;;;11.15;100.00
69630;BME280;56857;52.212;5.496;2024-03-22T14:54:45;101567.63;;;11.16;100.00
69630;BME280;56857;52.212;5.496;2024-03-22T14:57:11;101561.50;;;11.15;100.00
69630;BME280;56857;52.212;5.496;2024-03-22T14:59:36;101564.63;;;11.10;100.00
69630;BME280;56857;52.212;5.496;2024-03-22T15:02:01;101563.41;;;11.05;100.00
69630;BME280;56857;52.212;5.496;2024-03-22T15:04:26;101565.53;;;11.01;100.00
69630;BME280;56857;52.212;5.496;2024-03-22T15:06:52;101570.34;;;10.98;100.00
69630;BME280;56857;52.212;5.496;2024-03-22T15:09:17;101569.66;;;10.96;100.00
69630;BME280;56857;52.212;5.496;2024-03-22T15:11:42;101563.81;;;10.92;100.00
69630;BME280;56857;52.212;5.496;2024-03-22T15:14:08;101560.34;;;10.92;100.00
69630;BME280;56857;52.212;5.496;2024-03-22T15:16:33;101566.47;;;10.92;100.00
69630;BME280;56857;52.212;5.496;2024-03-22T15:18:58;101555.34;;;10.88;100.00
69630;BME280;56857;52.212;5.496;2024-03-22T15:21:24;101552.81;;;10.87;100.00
69630;BME280;56857;52.212;5.496;2024-03-22T15:23:49;101552.81;;;10.87;100.00
69630;BME280;56857;52.212;5.496;2024-03-22T15:26:14;101554.81;;;10.85;100.00
69630;BME280;56857;52.212;5.496;2024-03-22T15:28:40;101553.00;;;10.85;100.00
69630;BME280;56857;52.212;5.496;2024-03-22T15:31:05;101560.25;;;10.83;100.00
69630;BME280;56857;52.212;5.496;2024-03-22T15:33:30;101549.13;;;10.80;100.00
69630;BME280;56857;52.212;5.496;2024-03-22T15:35:56;101549.03;;;10.72;100.00
69630;BME280;56857;52.212;5.496;2024-03-22T15:38:21;101550.50;;;10.66;100.00
69630;BME280;56857;52.212;5.496;2024-03-22T15:40:47;101556.25;;;10.61;100.00
69630;BME280;56857;52.212;5.496;2024-03-22T15:43:12;101546.78;;;10.59;100.00
69630;BME280;56857;52.212;5.496;2024-03-22T15:45:37;101546.94;;;10.57;100.00
69630;BME280;56857;52.212;5.496;2024-03-22T15:48:04;101548.91;;;10.55;100.00
69630;BME280;56857;52.212;5.496;2024-03-22T15:50:29;101551.03;;;10.52;100.00
69630;BME280;56857;52.212;5.496;2024-03-22T15:52:54;101554.16;;;10.47;100.00
69630;BME280;56857;52.212;5.496;2024-03-22T15:55:20;101542.16;;;10.43;100.00
69630;BME280;56857;52.212;5.496;2024-03-22T15:57:45;101535.66;;;10.37;100.00
69630;BME280;56857;52.212;5.496;2024-03-22T16:00:11;101537.63;;;10.35;100.00
69630;BME280;56857;52.212;5.496;2024-03-22T16:02:36;101534.28;;;10.33;100.00
69630;BME280;56857;52.212;5.496;2024-03-22T16:05:01;101530.28;;;10.29;100.00
69630;BME280;56857;52.212;5.496;2024-03-22T16:07:27;101536.72;;;10.27;100.00
69630;BME280;56857;52.212;5.496;2024-03-22T16:09:52;101526.09;;;10.27;100.00
69630;BME280;56857;52.212;5.496;2024-03-22T16:12:17;101539.63;;;10.24;100.00
69630;BME280;56857;52.212;5.496;2024-03-22T16:14:42;101537.28;;;10.20;100.00
69630;BME280;56857;52.212;5.496;2024-03-22T16:17:08;101536.44;;;10.20;100.00
69630;BME280;56857;52.212;5.496;2024-03-22T16:19:33;101534.78;;;10.19;100.00
69630;BME280;56857;52.212;5.496;2024-03-22T16:21:58;101540.22;;;10.17;100.00
69630;BME280;56857;52.212;5.496;2024-03-22T16:24:24;101535.75;;;10.18;100.00
69630;BME280;56857;52.212;5.496;2024-03-22T16:26:49;101532.44;;;10.16;100.00
69630;BME280;56857;52.212;5.496;2024-03-22T16:29:14;101528.25;;;10.13;100.00
69630;BME280;56857;52.212;5.496;2024-03-22T16:31:40;101526.59;;;10.12;100.00
69630;BME280;56857;52.212;5.496;2024-03-22T16:34:05;101532.03;;;10.11;100.00
69630;BME280;56857;52.212;5.496;2024-03-22T16:36:30;101528.72;;;10.09;100.00
69630;BME280;56857;52.212;5.496;2024-03-22T16:38:56;101541.13;;;10.08;100.00
69630;BME280;56857;52.212;5.496;2024-03-22T16:41:21;101523.56;;;10.07;100.00
69630;BME280;56857;52.212;5.496;2024-03-22T16:43:46;101522.88;;;10.05;100.00
69630;BME280;56857;52.212;5.496;2024-03-22T16:46:11;101522.19;;;10.03;100.00
69630;BME280;56857;52.212;5.496;2024-03-22T16:48:37;101515.50;;;9.99;100.00
69630;BME280;56857;52.212;5.496;2024-03-22T16:51:02;101511.91;;;10.00;100.00
69630;BME280;56857;52.212;5.496;2024-03-22T16:53:28;101514.56;;;10.00;100.00
69630;BME280;56857;52.212;5.496;2024-03-22T16:55:53;101513.03;;;9.97;100.00
69630;BME280;56857;52.212;5.496;2024-03-22T16:58:18;101508.72;;;9.96;100.00
69630;BME280;56857;52.212;5.496;2024-03-22T17:00:44;101517.78;;;9.94;100.00
69630;BME280;56857;52.212;5.496;2024-03-22T17:03:10;101523.22;;;9.92;100.00
69630;BME280;56857;52.212;5.496;2024-03-22T17:05:35;101518.09;;;9.91;100.00
69630;BME280;56857;52.212;5.496;2024-03-22T17:08:01;101502.50;;;9.88;100.00
69630;BME280;56857;52.212;5.496;2024-03-22T17:10:26;101499.44;;;9.83;100.00
69630;BME280;56857;52.212;5.496;2024-03-22T17:12:52;101488.78;;;9.74;100.00
69630;BME280;56857;52.212;5.496;2024-03-22T17:15:17;101483.63;;;9.73;100.00
69630;BME280;56857;52.212;5.496;2024-03-22T17:17:43;101496.31;;;9.69;100.00
69630;BME280;56857;52.212;5.496;2024-03-22T17:20:09;101496.31;;;9.69;100.00
69630;BME280;56857;52.212;5.496;2024-03-22T17:22:34;101505.25;;;9.68;100.00
69630;BME280;56857;52.212;5.496;2024-03-22T17:24:59;101497.31;;;9.68;100.00
69630;BME280;56857;52.212;5.496;2024-03-22T17:27:25;101495.63;;;9.67;100.00
69630;BME280;56857;52.212;5.496;2024-03-22T17:29:50;101485.19;;;9.66;100.00
69630;BME280;56857;52.212;5.496;2024-03-22T17:32:15;101483.69;;;9.63;100.00
69630;BME280;56857;52.212;5.496;2024-03-22T17:34:41;101488.44;;;9.60;100.00
69630;BME280;56857;52.212;5.496;2024-03-22T17:37:06;101485.78;;;9.60;100.00
69630;BME280;56857;52.212;5.496;2024-03-22T17:39:32;101471.84;;;9.58;100.00
69630;BME280;56857;52.212;5.496;2024-03-22T17:41:57;101472.97;;;9.55;100.00
69630;BME280;56857;52.212;5.496;2024-03-22T17:44:23;101473.97;;;9.54;100.00
69630;BME280;56857;52.212;5.496;2024-03-22T17:46:48;101481.25;;;9.52;100.00
69630;BME280;56857;52.212;5.496;2024-03-22T17:49:13;101484.84;;;9.51;100.00
69630;BME280;56857;52.212;5.496;2024-03-22T17:51:39;101480.69;;;9.48;100.00
69630;BME280;56857;52.212;5.496;2024-03-22T17:54:04;101476.38;;;9.47;100.00
69630;BME280;56857;52.212;5.496;2024-03-22T17:56:29;101483.31;;;9.48;100.00
69630;BME280;56857;52.212;5.496;2024-03-22T17:58:55;101472.91;;;9.47;100.00
69630;BME280;56857;52.212;5.496;2024-03-22T18:01:20;101477.38;;;9.46;100.00
69630;BME280;56857;52.212;5.496;2024-03-22T18:03:47;101464.25;;;9.45;100.00
69630;BME280;56857;52.212;5.496;2024-03-22T18:06:12;101467.06;;;9.43;100.00
69630;BME280;56857;52.212;5.496;2024-03-22T18:08:37;101469.00;;;9.41;100.00
69630;BME280;56857;52.212;5.496;2024-03-22T18:11:03;101470.00;;;9.40;100.00
69630;BME280;56857;52.212;5.496;2024-03-22T18:13:28;101465.69;;;9.39;100.00
69630;BME280;56857;52.212;5.496;2024-03-22T18:15:53;101462.50;;;9.36;100.00
69630;BME280;56857;52.212;5.496;2024-03-22T18:18:19;101465.13;;;9.36;100.00
69630;BME280;56857;52.212;5.496;2024-03-22T18:20:44;101467.78;;;9.36;100.00
69630;BME280;56857;52.212;5.496;2024-03-22T18:23:13;101474.88;;;9.35;100.00
69630;BME280;56857;52.212;5.496;2024-03-22T18:25:39;101474.06;;;9.35;100.00
69630;BME280;56857;52.212;5.496;2024-03-22T18:28:04;101476.88;;;9.33;100.00
69630;BME280;56857;52.212;5.496;2024-03-22T18:30:30;101477.81;;;9.32;100.00
69630;BME280;56857;52.212;5.496;2024-03-22T18:32:55;101470.72;;;9.33;100.00
69630;BME280;56857;52.212;5.496;2024-03-22T18:35:20;101469.06;;;9.32;100.00
69630;BME280;56857;52.212;5.496;2024-03-22T18:37:46;101476.16;;;9.31;100.00
69630;BME280;56857;52.212;5.496;2024-03-22T18:40:11;101481.47;;;9.31;100.00
69630;BME280;56857;52.212;5.496;2024-03-22T18:42:37;101476.31;;;9.29;100.00
69630;BME280;56857;52.212;5.496;2024-03-22T18:45:02;101478.94;;;9.29;100.00
69630;BME280;56857;52.212;5.496;2024-03-22T18:47:28;101473.81;;;9.28;100.00
69630;BME280;56857;52.212;5.496;2024-03-22T18:49:53;101474.66;;;9.28;100.00
69630;BME280;56857;52.212;5.496;2024-03-22T18:52:18;101466.88;;;9.27;100.00
69630;BME280;56857;52.212;5.496;2024-03-22T18:54:49;101470.47;;;9.26;100.00
69630;BME280;56857;52.212;5.496;2024-03-22T18:57:14;101470.47;;;9.26;100.00
69630;BME280;56857;52.212;5.496;2024-03-22T18:59:39;101468.81;;;9.25;100.00
69630;BME280;56857;52.212;5.496;2024-03-22T19:02:05;101469.81;;;9.24;100.00
69630;BME280;56857;52.212;5.496;2024-03-22T19:04:30;101458.53;;;9.22;100.00
69630;BME280;56857;52.212;5.496;2024-03-22T19:06:56;101461.47;;;9.19;100.00
69630;BME280;56857;52.212;5.496;2024-03-22T19:09:21;101457.28;;;9.16;100.00
69630;BME280;56857;52.212;5.496;2024-03-22T19:11:46;101461.03;;;9.14;100.00
69630;BME280;56857;52.212;5.496;2024-03-22T19:14:11;101450.63;;;9.12;100.00
69630;BME280;56857;52.212;5.496;2024-03-22T19:16:38;101438.53;;;9.10;100.00
69630;BME280;56857;52.212;5.496;2024-03-22T19:19:03;101438.53;;;9.10;100.00
69630;BME280;56857;52.212;5.496;2024-03-22T19:21:29;101435.03;;;9.09;100.00
69630;BME280;56857;52.212;5.496;2024-03-22T19:23:54;101434.22;;;9.09;100.00
69630;BME280;56857;52.212;5.496;2024-03-22T19:26:19;101433.38;;;9.08;100.00
69630;BME280;56857;52.212;5.496;2024-03-22T19:28:45;101426.56;;;9.05;100.00
69630;BME280;56857;52.212;5.496;2024-03-22T19:31:10;101424.88;;;9.04;100.00
69630;BME280;56857;52.212;5.496;2024-03-22T19:33:35;101423.22;;;9.03;100.00
69630;BME280;56857;52.212;5.496;2024-03-22T19:36:00;101418.75;;;9.04;100.00
69630;BME280;56857;52.212;5.496;2024-03-22T19:38:26;101419.75;;;9.03;100.00
69630;BME280;56857;52.212;5.496;2024-03-22T19:40:53;101416.28;;;9.02;100.00
69630;BME280;56857;52.212;5.496;2024-03-22T19:43:19;101413.63;;;9.02;100.00
69630;BME280;56857;52.212;5.496;2024-03-22T19:45:44;101418.94;;;9.02;100.00
69630;BME280;56857;52.212;5.496;2024-03-22T19:48:09;101417.09;;;9.03;100.00
69630;BME280;56857;52.212;5.496;2024-03-22T19:50:34;101415.44;;;9.02;100.00
69630;BME280;56857;52.212;5.496;2024-03-22T19:53:00;101421.56;;;9.02;100.00
69630;BME280;56857;52.212;5.496;2024-03-22T19:55:25;101418.94;;;9.02;100.00
69630;BME280;56857;52.212;5.496;2024-03-22T19:57:50;101415.44;;;9.02;100.00
69630;BME280;56857;52.212;5.496;2024-03-22T20:00:16;101409.47;;;9.00;100.00
69630;BME280;56857;52.212;5.496;2024-03-22T20:02:41;101411.56;;;8.96;100.00
69630;BME280;56857;52.212;5.496;2024-03-22T20:05:06;101413.69;;;8.93;100.00
69630;BME280;56857;52.212;5.496;2024-03-22T20:07:32;101412.97;;;8.91;100.00
69630;BME280;56857;52.212;5.496;2024-03-22T20:09:57;101400.88;;;8.88;100.00
69630;BME280;56857;52.212;5.496;2024-03-22T20:12:22;101401.16;;;8.85;100.00
69630;BME280;56857;52.212;5.496;2024-03-22T20:14:48;101403.97;;;8.84;100.00
69630;BME280;56857;52.212;5.496;2024-03-22T20:17:13;101407.56;;;8.82;100.00
69630;BME280;56857;52.212;5.496;2024-03-22T20:19:38;101402.44;;;8.81;100.00